Time,TemperatureF,DewpointF,PressureIn,WindDirection,WindDirectionDegrees,WindSpeedMPH,WindSpeedGustMPH,Humidity,HourlyPrecipIn,Conditions,Clouds,dailyrainin,SoftwareType,DateUTC
2013-05-15 00:00:00,49.6,46.5,29.99,WSW,251,0.0,25.0,89,0.00,,,0.00,Wunderground v.1.15,2013-05-15 07:00:00,
2013-05-15 00:06:00,49.4,46.6,29.99,West,273,0.0,25.0,90,0.00,,,0.00,Wunderground v.1.15,2013-05-15 07:06:00,
2013-05-15 00:12:00,49.3,46.5,29.99,West,273,0.0,25.0,90,0.00,,,0.00,Wunderground v.1.15,2013-05-15 07:12:00,
2013-05-15 00:18:00,49.2,46.7,30.00,WNW,292,0.0,25.0,91,0.00,,,0.00,Wunderground v.1.15,2013-05-15 07:18:00,
2013-05-15 00:23:00,49.2,46.7,30.00,WNW,292,0.0,25.0,91,0.00,,,0.00,Wunderground v.1.15,2013-05-15 07:23:00,
2013-05-15 00:29:00,49.1,46.6,30.00,WNW,292,0.0,25.0,91,0.00,,,0.00,Wunderground v.1.15,2013-05-15 07:29:00,
2013-05-15 00:35:00,49.1,46.6,30.00,WNW,292,0.0,25.0,91,0.00,,,0.00,Wunderground v.1.15,2013-05-15 07:35:00,
2013-05-15 00:40:00,49.1,46.6,30.00,WNW,292,0.0,25.0,91,0.00,,,0.00,Wunderground v.1.15,2013-05-15 07:40:00,
2013-05-15 00:46:00,48.9,46.4,30.00,WNW,292,0.0,25.0,91,0.00,,,0.00,Wunderground v.1.15,2013-05-15 07:46:00,
2013-05-15 00:52:00,48.8,46.3,29.99,WNW,292,0.0,25.0,91,0.00,,,0.00,Wunderground v.1.15,2013-05-15 07:52:00,
2013-05-15 00:58:00,48.8,46.3,29.99,WNW,292,0.0,25.0,91,0.00,,,0.00,Wunderground v.1.15,2013-05-15 07:58:00,
2013-05-15 01:04:00,48.7,46.2,29.99,WNW,292,0.0,25.0,91,0.00,,,0.00,Wunderground v.1.15,2013-05-15 08:04:00,
2013-05-15 01:09:00,48.6,46.1,29.99,NNW,346,0.0,25.0,91,0.00,,,0.00,Wunderground v.1.15,2013-05-15 08:09:00,
2013-05-15 01:15:00,48.7,46.5,29.99,NNW,346,1.0,25.0,92,0.00,,,0.00,Wunderground v.1.15,2013-05-15 08:15:00,
2013-05-15 01:20:00,48.7,46.5,29.99,NNW,346,0.0,25.0,92,0.00,,,0.00,Wunderground v.1.15,2013-05-15 08:20:00,
2013-05-15 01:26:00,48.7,46.5,30.00,NNW,346,0.0,25.0,92,0.00,,,0.00,Wunderground v.1.15,2013-05-15 08:26:00,
2013-05-15 01:31:00,48.6,46.4,29.99,NNW,346,0.0,25.0,92,0.00,,,0.00,Wunderground v.1.15,2013-05-15 08:31:00,
2013-05-15 01:37:00,48.6,46.4,29.99,NNW,346,0.0,25.0,92,0.00,,,0.00,Wunderground v.1.15,2013-05-15 08:37:00,
2013-05-15 01:42:00,48.5,46.3,29.99,NNW,346,0.0,25.0,92,0.00,,,0.00,Wunderground v.1.15,2013-05-15 08:42:00,
2013-05-15 01:48:00,48.5,46.3,29.99,NNW,346,0.0,25.0,92,0.00,,,0.00,Wunderground v.1.15,2013-05-15 08:48:00,
2013-05-15 01:54:00,48.4,46.2,29.99,NNW,346,0.0,25.0,92,0.00,,,0.00,Wunderground v.1.15,2013-05-15 08:54:00,
2013-05-15 02:00:00,48.2,45.7,29.99,NNW,346,0.0,25.0,91,0.00,,,0.00,Wunderground v.1.15,2013-05-15 09:00:00,
2013-05-15 02:06:00,48.0,45.5,29.99,NNW,346,0.0,25.0,91,0.00,,,0.00,Wunderground v.1.15,2013-05-15 09:06:00,
2013-05-15 02:11:00,47.7,45.2,29.99,NNW,346,0.0,25.0,91,0.00,,,0.00,Wunderground v.1.15,2013-05-15 09:11:00,
2013-05-15 02:17:00,47.4,44.9,29.99,NNW,346,0.0,25.0,91,0.00,,,0.00,Wunderground v.1.15,2013-05-15 09:17:00,
2013-05-15 02:22:00,47.2,44.7,29.99,NNW,346,0.0,25.0,91,0.00,,,0.00,Wunderground v.1.15,2013-05-15 09:22:00,
2013-05-15 02:28:00,47.1,44.9,29.99,NNW,338,0.0,25.0,92,0.00,,,0.00,Wunderground v.1.15,2013-05-15 09:28:00,
2013-05-15 02:34:00,47.1,44.9,29.99,NNW,338,0.0,25.0,92,0.00,,,0.00,Wunderground v.1.15,2013-05-15 09:34:00,
2013-05-15 02:40:00,47.1,44.9,29.99,NNW,338,0.0,25.0,92,0.00,,,0.00,Wunderground v.1.15,2013-05-15 09:40:00,
2013-05-15 02:46:00,47.2,45.3,29.99,NNW,338,0.0,25.0,93,0.00,,,0.00,Wunderground v.1.15,2013-05-15 09:46:00,
2013-05-15 02:52:00,47.3,45.4,29.99,NNW,338,0.0,25.0,93,0.00,,,0.00,Wunderground v.1.15,2013-05-15 09:52:00,
2013-05-15 02:58:00,47.2,45.0,29.99,NNW,338,0.0,25.0,92,0.00,,,0.00,Wunderground v.1.15,2013-05-15 09:58:00,
2013-05-15 03:04:00,47.0,44.8,29.99,NNW,338,0.0,25.0,92,0.00,,,0.00,Wunderground v.1.15,2013-05-15 10:04:00,
2013-05-15 03:10:00,46.8,44.6,29.99,NNW,338,0.0,25.0,92,0.00,,,0.00,Wunderground v.1.15,2013-05-15 10:10:00,
2013-05-15 03:15:00,46.8,44.6,29.99,NNW,338,0.0,25.0,92,0.00,,,0.00,Wunderground v.1.15,2013-05-15 10:15:00,
2013-05-15 03:21:00,46.7,44.8,29.99,NNW,338,0.0,25.0,93,0.00,,,0.00,Wunderground v.1.15,2013-05-15 10:21:00,
2013-05-15 03:26:00,46.7,44.8,29.99,NNW,338,0.0,25.0,93,0.00,,,0.00,Wunderground v.1.15,2013-05-15 10:26:00,
2013-05-15 03:31:00,46.7,44.8,29.99,NNW,338,0.0,25.0,93,0.00,,,0.00,Wunderground v.1.15,2013-05-15 10:31:00,
2013-05-15 03:36:00,46.8,44.9,29.99,NNW,338,0.0,25.0,93,0.00,,,0.00,Wunderground v.1.15,2013-05-15 10:36:00,
2013-05-15 03:41:00,46.8,44.9,29.99,NNW,340,0.0,25.0,93,0.00,,,0.00,Wunderground v.1.15,2013-05-15 10:41:00,
2013-05-15 03:47:00,46.7,44.8,29.99,NNW,341,0.0,25.0,93,0.00,,,0.00,Wunderground v.1.15,2013-05-15 10:47:00,
2013-05-15 03:52:00,46.5,44.6,29.99,NNW,341,0.0,25.0,93,0.00,,,0.00,Wunderground v.1.15,2013-05-15 10:52:00,
2013-05-15 03:57:00,46.3,44.1,29.99,NNW,341,0.0,25.0,92,0.00,,,0.00,Wunderground v.1.15,2013-05-15 10:57:00,
2013-05-15 04:02:00,46.2,44.3,29.99,NNW,341,0.0,25.0,93,0.00,,,0.00,Wunderground v.1.15,2013-05-15 11:02:00,
2013-05-15 04:08:00,46.4,44.5,29.99,NNW,340,0.0,25.0,93,0.00,,,0.00,Wunderground v.1.15,2013-05-15 11:08:00,
2013-05-15 04:13:00,46.2,44.3,29.99,NNW,341,0.0,25.0,93,0.00,,,0.00,Wunderground v.1.15,2013-05-15 11:13:00,
2013-05-15 04:18:00,46.1,44.2,29.99,NNW,340,0.0,25.0,93,0.00,,,0.00,Wunderground v.1.15,2013-05-15 11:18:00,
2013-05-15 04:24:00,45.9,43.7,30.00,NNW,340,0.0,25.0,92,0.00,,,0.00,Wunderground v.1.15,2013-05-15 11:24:00,
2013-05-15 04:29:00,45.6,43.4,30.00,NNW,341,0.0,25.0,92,0.00,,,0.00,Wunderground v.1.15,2013-05-15 11:29:00,
2013-05-15 04:35:00,45.5,43.3,30.00,NNW,341,0.0,25.0,92,0.00,,,0.00,Wunderground v.1.15,2013-05-15 11:35:00,
2013-05-15 04:41:00,45.4,43.5,29.99,NNW,341,0.0,25.0,93,0.00,,,0.00,Wunderground v.1.15,2013-05-15 11:41:00,
2013-05-15 04:46:00,45.5,43.6,30.00,NNW,341,0.0,25.0,93,0.00,,,0.00,Wunderground v.1.15,2013-05-15 11:46:00,
2013-05-15 04:51:00,45.6,43.7,30.00,NNW,341,0.0,25.0,93,0.00,,,0.00,Wunderground v.1.15,2013-05-15 11:51:00,
2013-05-15 04:58:00,45.5,43.6,30.00,NNW,341,0.0,25.0,93,0.00,,,0.00,Wunderground v.1.15,2013-05-15 11:58:00,
2013-05-15 05:05:00,45.4,43.5,30.00,NNW,340,0.0,25.0,93,0.00,,,0.00,Wunderground v.1.15,2013-05-15 12:05:00,
2013-05-15 05:10:00,45.4,43.5,30.00,NNW,341,0.0,25.0,93,0.00,,,0.00,Wunderground v.1.15,2013-05-15 12:10:00,
2013-05-15 05:16:00,45.2,43.3,30.00,NNW,341,0.0,25.0,93,0.00,,,0.00,Wunderground v.1.15,2013-05-15 12:16:00,
2013-05-15 05:21:00,45.2,43.3,30.00,NNW,341,0.0,25.0,93,0.00,,,0.00,Wunderground v.1.15,2013-05-15 12:21:00,
2013-05-15 05:26:00,45.2,43.3,30.00,NNW,340,0.0,25.0,93,0.00,,,0.00,Wunderground v.1.15,2013-05-15 12:26:00,
2013-05-15 05:31:00,45.2,43.3,30.00,NNW,341,0.0,25.0,93,0.00,,,0.00,Wunderground v.1.15,2013-05-15 12:31:00,
2013-05-15 05:37:00,45.2,43.3,30.00,NNW,341,0.0,25.0,93,0.00,,,0.00,Wunderground v.1.15,2013-05-15 12:37:00,
2013-05-15 05:42:00,45.2,43.3,30.00,NNW,341,0.0,25.0,93,0.00,,,0.00,Wunderground v.1.15,2013-05-15 12:42:00,
2013-05-15 05:47:00,45.1,43.2,30.00,NNW,341,0.0,25.0,93,0.00,,,0.00,Wunderground v.1.15,2013-05-15 12:47:00,
2013-05-15 05:52:00,44.9,43.0,30.00,NNW,341,0.0,25.0,93,0.00,,,0.00,Wunderground v.1.15,2013-05-15 12:52:00,
2013-05-15 05:58:00,44.9,43.0,30.00,NNW,341,0.0,25.0,93,0.00,,,0.00,Wunderground v.1.15,2013-05-15 12:58:00,
2013-05-15 06:04:00,44.9,43.0,30.01,NNW,341,0.0,25.0,93,0.00,,,0.00,Wunderground v.1.15,2013-05-15 13:04:00,
2013-05-15 06:11:00,44.9,43.3,30.01,NNW,341,0.0,25.0,94,0.00,,,0.00,Wunderground v.1.15,2013-05-15 13:11:00,
2013-05-15 06:16:00,45.0,43.4,30.01,NNW,341,0.0,25.0,94,0.00,,,0.00,Wunderground v.1.15,2013-05-15 13:16:00,
2013-05-15 06:22:00,45.2,43.6,30.01,NNW,341,0.0,25.0,94,0.00,,,0.00,Wunderground v.1.15,2013-05-15 13:22:00,
2013-05-15 06:27:00,45.3,43.7,30.01,NNW,341,0.0,25.0,94,0.00,,,0.00,Wunderground v.1.15,2013-05-15 13:27:00,
2013-05-15 06:32:00,45.5,44.2,30.01,NNW,340,0.0,25.0,95,0.00,,,0.00,Wunderground v.1.15,2013-05-15 13:32:00,
2013-05-15 06:38:00,45.6,44.3,30.02,NNW,341,0.0,25.0,95,0.00,,,0.00,Wunderground v.1.15,2013-05-15 13:38:00,
2013-05-15 06:44:00,45.8,44.4,30.02,NNW,341,0.0,25.0,95,0.00,,,0.00,Wunderground v.1.15,2013-05-15 13:44:00,
2013-05-15 06:50:00,46.2,44.8,30.02,NNW,341,0.0,25.0,95,0.00,,,0.00,Wunderground v.1.15,2013-05-15 13:50:00,
2013-05-15 06:56:00,46.9,45.5,30.02,NNW,341,0.0,25.0,95,0.00,,,0.00,Wunderground v.1.15,2013-05-15 13:56:00,